createdAt,value
2019-05-29T00:02:07.947Z,99683.25
2019-05-29T00:04:34.721Z,99689.64
2019-05-29T00:07:01.509Z,99694.86
2019-05-29T00:09:28.237Z,99679.52
2019-05-29T00:11:54.924Z,99684.81
2019-05-29T00:14:27.115Z,99688.98
2019-05-29T00:16:50.272Z,99690.78
2019-05-29T00:19:17.079Z,99696.06
2019-05-29T00:21:43.690Z,99698.59
2019-05-29T00:24:12.488Z,99698.72
2019-05-29T00:26:39.330Z,99699.13
2019-05-29T00:29:06.162Z,99699.27
2019-05-29T00:31:32.835Z,99698.64
2019-05-29T00:33:59.669Z,99696.18
2019-05-29T00:36:26.392Z,99702.16
2019-05-29T00:38:53.057Z,99698.84
2019-05-29T00:41:20.894Z,99698.94
2019-05-29T00:43:47.660Z,99695.95
2019-05-29T00:46:15.577Z,99692.29
2019-05-29T00:48:42.611Z,99696.91
2019-05-29T00:51:09.362Z,99689.27
2019-05-29T00:53:36.035Z,99687.70
2019-05-29T00:56:02.942Z,99685.83
2019-05-29T00:58:29.542Z,99690.34
2019-05-29T01:00:56.289Z,99689.84
2019-05-29T01:03:23.008Z,99683.72
2019-05-29T01:05:49.760Z,99689.12
2019-05-29T01:08:18.404Z,99696.73
2019-05-29T01:10:44.970Z,99704.59
2019-05-29T01:13:13.044Z,99704.72
2019-05-29T01:15:43.227Z,99708.19
2019-05-29T01:18:09.964Z,99696.89
2019-05-29T01:20:38.156Z,99703.72
2019-05-29T01:23:04.933Z,99698.74
2019-05-29T01:25:31.562Z,99708.60
2019-05-29T01:27:58.359Z,99699.00
2019-05-29T01:30:25.028Z,99702.78
2019-05-29T01:32:51.674Z,99701.81
2019-05-29T01:35:18.450Z,99703.61
2019-05-29T01:37:45.029Z,99706.14
2019-05-29T01:40:21.122Z,99710.76
2019-05-29T01:42:42.008Z,99716.03
2019-05-29T01:45:09.272Z,99717.36
2019-05-29T01:47:35.979Z,99717.30
2019-05-29T01:50:06.032Z,99715.73
2019-05-29T01:52:32.825Z,99722.38
2019-05-29T01:54:59.462Z,99716.55
2019-05-29T01:57:26.032Z,99715.97
2019-05-29T01:59:52.745Z,99725.39
2019-05-29T02:02:19.865Z,99728.05
2019-05-29T02:04:46.576Z,99730.84
2019-05-29T02:07:13.222Z,99728.17
2019-05-29T02:09:39.813Z,99733.63
2019-05-29T02:12:06.655Z,99733.81
2019-05-29T02:14:33.259Z,99739.85
2019-05-29T02:17:00.106Z,99732.36
2019-05-29T02:19:28.168Z,99738.93
2019-05-29T02:21:55.142Z,99745.70
2019-05-29T02:24:23.160Z,99752.56
2019-05-29T02:26:50.179Z,99752.80
2019-05-29T02:29:16.861Z,99754.97
2019-05-29T02:31:43.435Z,99753.39
2019-05-29T02:34:10.213Z,99754.83
2019-05-29T02:36:36.949Z,99759.03
2019-05-29T02:39:06.590Z,99756.03
2019-05-29T02:41:33.326Z,99758.55
2019-05-29T02:44:00.098Z,99766.29
2019-05-29T02:46:28.612Z,99766.83
2019-05-29T02:48:55.385Z,99778.56
2019-05-29T02:51:22.542Z,99784.03
2019-05-29T02:53:50.896Z,99787.91
2019-05-29T02:56:17.757Z,99796.97
2019-05-29T02:58:44.752Z,99793.73
2019-05-29T03:01:11.520Z,99798.44
2019-05-29T03:03:40.038Z,99799.88
2019-05-29T03:06:07.234Z,99805.45
2019-05-29T03:08:34.590Z,99815.84
2019-05-29T03:11:01.610Z,99818.63
2019-05-29T03:13:30.527Z,99820.08
2019-05-29T03:16:09.495Z,99831.19
2019-05-29T03:18:25.953Z,99826.69
2019-05-29T03:20:52.550Z,99828.52
2019-05-29T03:23:19.483Z,99831.28
2019-05-29T03:25:46.127Z,99836.69
2019-05-29T03:28:12.709Z,99846.54
2019-05-29T03:30:45.971Z,99859.08
2019-05-29T03:33:08.089Z,99858.67
2019-05-29T03:35:43.212Z,99869.02
2019-05-29T03:38:05.105Z,99869.99
2019-05-29T03:40:33.598Z,99881.73
2019-05-29T03:43:00.354Z,99884.34
2019-05-29T03:45:28.985Z,99894.56
2019-05-29T03:47:57.252Z,99907.80
2019-05-29T03:50:26.567Z,99902.46
2019-05-29T03:52:53.680Z,99914.41
2019-05-29T03:55:20.445Z,99923.81
2019-05-29T03:57:47.107Z,99925.31
2019-05-29T04:00:14.472Z,99927.67
2019-05-29T04:02:41.349Z,99938.36
2019-05-29T04:05:08.949Z,99941.13
2019-05-29T04:07:36.158Z,99949.89
2019-05-29T04:10:07.699Z,99954.36
2019-05-29T04:12:35.506Z,99964.64
2019-05-29T04:15:04.752Z,99971.37
2019-05-29T04:17:35.526Z,99980.18
2019-05-29T04:20:07.114Z,99991.28
2019-05-29T04:22:39.547Z,99996.42
2019-05-29T04:25:07.973Z,100000.45
2019-05-29T04:27:40.116Z,100010.38
2019-05-29T04:30:07.375Z,100015.04
2019-05-29T04:32:34.445Z,100016.63
2019-05-29T04:35:01.193Z,100015.34
2019-05-29T04:37:28.345Z,100022.72
2019-05-29T04:39:55.301Z,100030.47
2019-05-29T04:42:21.868Z,100029.55
2019-05-29T04:44:48.527Z,100032.75
2019-05-29T04:47:15.156Z,100048.65
2019-05-29T04:49:41.724Z,100057.25
2019-05-29T04:52:08.517Z,100054.52
2019-05-29T04:54:35.431Z,100072.45
2019-05-29T04:57:02.319Z,100070.52
2019-05-29T04:59:28.967Z,100079.80
2019-05-29T05:01:55.585Z,100074.95
2019-05-29T05:04:22.208Z,100085.41
2019-05-29T05:06:49.025Z,100089.95
2019-05-29T05:09:15.631Z,100093.41
2019-05-29T05:11:42.348Z,100098.73
2019-05-29T05:14:09.097Z,100100.45
2019-05-29T05:16:37.885Z,100108.45
2019-05-29T05:19:05.009Z,100103.19
2019-05-29T05:21:32.008Z,100118.91
2019-05-29T05:23:58.746Z,100117.95
2019-05-29T05:26:25.356Z,100120.61
2019-05-29T05:28:52.292Z,100130.24
2019-05-29T05:31:19.008Z,100138.91
2019-05-29T05:33:45.808Z,100143.88
2019-05-29T05:36:12.520Z,100148.50
2019-05-29T05:38:39.276Z,100153.82
2019-05-29T05:41:05.902Z,100163.31
2019-05-29T05:43:32.906Z,100165.39
2019-05-29T05:45:59.812Z,100169.18
2019-05-29T05:48:26.960Z,100178.65
2019-05-29T05:50:53.536Z,100180.33
2019-05-29T05:53:20.690Z,100184.34
2019-05-29T05:55:47.355Z,100195.86
2019-05-29T05:58:14.024Z,100191.50
2019-05-29T06:00:42.112Z,100205.51
2019-05-29T06:03:09.108Z,100206.16
2019-05-29T06:05:36.216Z,100210.95
2019-05-29T06:08:03.554Z,100215.89
2019-05-29T06:10:30.565Z,100206.88
2019-05-29T06:12:57.520Z,100204.43
2019-05-29T06:15:24.425Z,100203.59
2019-05-29T06:18:10.194Z,100214.25
2019-05-29T06:20:19.993Z,100222.76
2019-05-29T06:22:46.685Z,100222.50
2019-05-29T06:25:15.000Z,100220.00
2019-05-29T06:27:41.659Z,100221.00
2019-05-29T06:30:09.187Z,100234.89
2019-05-29T06:32:37.273Z,100241.51
2019-05-29T06:35:04.999Z,100235.09
2019-05-29T06:37:31.666Z,100251.04
2019-05-29T06:39:59.702Z,100246.78
2019-05-29T06:42:26.618Z,100254.19
2019-05-29T06:44:53.419Z,100262.88
2019-05-29T06:47:21.510Z,100271.91
2019-05-29T06:49:48.151Z,100277.17
2019-05-29T06:52:14.904Z,100284.17
2019-05-29T06:54:42.035Z,100285.38
2019-05-29T06:57:09.654Z,100291.53
2019-05-29T06:59:36.262Z,100299.23
2019-05-29T07:02:03.167Z,100302.16
2019-05-29T07:04:29.881Z,100299.41
2019-05-29T07:06:56.669Z,100307.89
2019-05-29T07:09:23.362Z,100313.78
2019-05-29T07:11:52.956Z,100318.36
2019-05-29T07:14:19.598Z,100322.81
2019-05-29T07:16:55.750Z,100332.61
2019-05-29T07:19:47.647Z,100338.11
2019-05-29T07:21:45.025Z,100339.31
2019-05-29T07:24:12.271Z,100352.08
2019-05-29T07:26:39.059Z,100356.87
2019-05-29T07:29:08.493Z,100361.27
2019-05-29T07:31:34.543Z,100366.72
2019-05-29T07:34:02.777Z,100370.16
2019-05-29T07:37:25.748Z,100371.00
2019-05-29T07:39:52.628Z,100378.75
2019-05-29T07:42:19.533Z,100379.77
2019-05-29T07:44:46.477Z,100385.13
2019-05-29T07:47:13.362Z,100392.95
2019-05-29T07:49:44.351Z,100399.95
2019-05-29T07:52:08.770Z,100393.38
2019-05-29T07:54:35.375Z,100402.86
2019-05-29T07:57:02.125Z,100406.91
2019-05-29T07:59:28.812Z,100405.86
2019-05-29T08:01:55.638Z,100405.47
2019-05-29T08:04:22.255Z,100411.98
2019-05-29T08:06:54.233Z,100414.50
2019-05-29T08:09:17.694Z,100427.73
2019-05-29T08:11:45.627Z,100422.28
2019-05-29T08:14:12.756Z,100433.87
2019-05-29T08:16:39.799Z,100440.79
2019-05-29T08:19:08.089Z,100435.59
2019-05-29T08:21:35.218Z,100442.90
2019-05-29T08:24:03.197Z,100445.19
2019-05-29T08:26:29.861Z,100448.26
2019-05-29T08:28:56.948Z,100454.21
2019-05-29T08:31:23.564Z,100455.29
2019-05-29T08:33:51.303Z,100455.52
2019-05-29T08:36:18.518Z,100463.02
2019-05-29T08:38:45.800Z,100464.07
2019-05-29T08:41:13.155Z,100465.30
2019-05-29T08:43:39.931Z,100472.20
2019-05-29T08:46:06.856Z,100477.98
2019-05-29T08:48:33.463Z,100479.30
2019-05-29T08:51:00.173Z,100486.88
2019-05-29T08:53:26.813Z,100497.59
2019-05-29T08:55:53.564Z,100503.11
2019-05-29T08:58:20.225Z,100503.38
2019-05-29T09:00:50.558Z,100509.86
2019-05-29T09:04:11.878Z,100508.97
2019-05-29T09:06:38.558Z,100517.62
2019-05-29T09:09:06.255Z,100515.11
2019-05-29T09:11:33.082Z,100529.16
2019-05-29T09:14:00.208Z,100529.44
2019-05-29T09:16:28.523Z,100533.58
2019-05-29T09:18:55.171Z,100527.92
2019-05-29T09:21:23.599Z,100542.30
2019-05-29T09:23:50.663Z,100537.85
2019-05-29T09:26:21.933Z,100537.29
2019-05-29T09:28:45.875Z,100542.35
2019-05-29T09:31:14.958Z,100548.05
2019-05-29T09:33:41.552Z,100553.13
2019-05-29T09:36:08.184Z,100557.03
2019-05-29T09:38:34.757Z,100567.52
2019-05-29T09:41:01.412Z,100562.47
2019-05-29T09:43:30.684Z,100563.66
2019-05-29T09:45:56.851Z,100569.36
2019-05-29T09:48:26.951Z,100569.50
2019-05-29T09:50:52.129Z,100570.63
2019-05-29T09:53:18.794Z,100582.33
2019-05-29T09:55:45.501Z,100584.76
2019-05-29T09:58:12.183Z,100582.55
2019-05-29T10:00:39.056Z,100577.46
2019-05-29T10:03:05.636Z,100586.56
2019-05-29T10:05:34.839Z,100587.70
2019-05-29T10:08:02.330Z,100594.16
2019-05-29T10:10:30.045Z,100603.69
2019-05-29T10:12:57.989Z,100613.39
2019-05-29T10:15:25.341Z,100606.50
2019-05-29T10:17:51.976Z,100622.92
2019-05-29T10:20:20.920Z,100628.79
2019-05-29T10:22:47.482Z,100629.27
2019-05-29T10:25:16.034Z,100631.22
2019-05-29T10:27:42.946Z,100637.05
2019-05-29T10:30:13.077Z,100633.78
2019-05-29T10:32:39.861Z,100636.12
2019-05-29T10:35:06.875Z,100636.92
2019-05-29T10:37:33.761Z,100641.28
2019-05-29T10:40:00.334Z,100642.97
2019-05-29T10:42:27.205Z,100646.05
2019-05-29T10:44:53.997Z,100641.15
2019-05-29T10:47:21.231Z,100641.20
2019-05-29T10:49:47.968Z,100650.00
2019-05-29T10:52:17.366Z,100648.13
2019-05-29T10:54:44.086Z,100648.31
2019-05-29T10:57:10.961Z,100643.02
2019-05-29T10:59:38.773Z,100648.57
2019-05-29T11:02:05.632Z,100646.41
2019-05-29T11:04:32.507Z,100651.13
2019-05-29T11:06:59.267Z,100653.45
2019-05-29T11:09:25.877Z,100657.13
2019-05-29T11:11:53.663Z,100660.75
2019-05-29T11:14:21.439Z,100663.92
2019-05-29T11:16:49.039Z,100673.72
2019-05-29T11:19:17.316Z,100676.73
2019-05-29T11:21:44.042Z,100685.61
2019-05-29T11:24:10.716Z,100685.55
2019-05-29T11:26:37.337Z,100692.89
2019-05-29T11:29:04.637Z,100694.97
2019-05-29T11:31:31.399Z,100696.56
2019-05-29T11:33:59.252Z,100700.48
2019-05-29T11:36:26.554Z,100702.55
2019-05-29T11:38:54.527Z,100701.77
2019-05-29T11:41:26.377Z,100690.67
2019-05-29T11:43:50.707Z,100697.13
2019-05-29T11:46:17.785Z,100704.29
2019-05-29T11:48:45.043Z,100700.66
2019-05-29T11:51:12.826Z,100700.83
2019-05-29T11:53:39.402Z,100694.78
2019-05-29T11:56:06.026Z,100696.98
2019-05-29T11:58:32.742Z,100700.06
2019-05-29T12:00:59.516Z,100704.48
2019-05-29T12:03:26.220Z,100705.03
2019-05-29T12:05:55.339Z,100712.69
2019-05-29T12:08:22.455Z,100717.27
2019-05-29T12:10:49.236Z,100718.39
2019-05-29T12:13:17.274Z,100718.77
2019-05-29T12:15:43.942Z,100723.34
2019-05-29T12:18:22.750Z,100727.92
2019-05-29T12:20:39.173Z,100734.31
2019-05-29T12:23:22.932Z,100729.38
2019-05-29T12:25:34.518Z,100738.45
2019-05-29T12:28:01.406Z,100742.39
2019-05-29T12:30:29.827Z,100741.21
2019-05-29T12:32:56.862Z,100741.75
2019-05-29T12:35:23.738Z,100743.47
2019-05-29T12:37:50.325Z,100739.18
2019-05-29T12:40:17.642Z,100741.70
2019-05-29T12:42:45.167Z,100734.37
2019-05-29T12:45:13.305Z,100740.80
2019-05-29T12:47:40.015Z,100743.05
2019-05-29T12:50:10.860Z,100750.70
2019-05-29T12:52:37.767Z,100752.44
2019-05-29T12:55:07.010Z,100743.23
2019-05-29T12:57:33.925Z,100750.36
2019-05-29T13:00:00.535Z,100744.47
2019-05-29T13:02:27.257Z,100747.36
2019-05-29T13:05:19.288Z,100756.33
2019-05-29T13:07:22.712Z,100752.97
2019-05-29T13:09:49.456Z,100750.41
2019-05-29T13:12:16.154Z,100754.66
2019-05-29T13:14:43.052Z,100741.86
2019-05-29T13:17:09.675Z,100750.02
2019-05-29T13:19:37.469Z,100747.16
2019-05-29T13:22:06.237Z,100750.09
2019-05-29T13:24:36.115Z,100738.09
2019-05-29T13:27:03.866Z,100749.88
2019-05-29T13:29:32.902Z,100759.24
2019-05-29T13:32:02.051Z,100755.45
2019-05-29T13:34:28.540Z,100756.48
2019-05-29T13:36:59.874Z,100758.64
2019-05-29T13:39:23.800Z,100760.79
2019-05-29T13:41:50.562Z,100762.13
2019-05-29T13:44:17.345Z,100767.50
2019-05-29T13:46:43.964Z,100771.75
2019-05-29T13:49:10.684Z,100768.33
2019-05-29T13:51:37.290Z,100767.95
2019-05-29T13:54:14.048Z,100761.30
2019-05-29T13:56:35.318Z,100768.20
2019-05-29T13:59:02.389Z,100768.95
2019-05-29T14:01:28.993Z,100774.11
2019-05-29T14:03:55.630Z,100773.05
2019-05-29T14:06:22.355Z,100771.45
2019-05-29T14:08:49.167Z,100773.48
2019-05-29T14:11:15.890Z,100776.09
2019-05-29T14:13:42.668Z,100770.70
2019-05-29T14:16:09.461Z,100775.66
2019-05-29T14:18:36.138Z,100770.23
2019-05-29T14:21:05.128Z,100774.36
2019-05-29T14:23:32.265Z,100782.34
2019-05-29T14:26:00.302Z,100770.29
2019-05-29T14:28:27.317Z,100780.06
2019-05-29T14:30:53.898Z,100772.41
2019-05-29T14:33:20.483Z,100780.59
2019-05-29T14:35:47.072Z,100765.66
2019-05-29T14:38:15.199Z,100765.22
2019-05-29T14:40:42.082Z,100782.53
2019-05-29T14:43:12.996Z,100782.97
2019-05-29T14:45:37.208Z,100794.43
2019-05-29T14:48:04.239Z,100794.43
2019-05-29T14:50:31.049Z,100795.03
2019-05-29T14:52:57.925Z,100797.19
2019-05-29T14:55:24.829Z,100801.16
2019-05-29T14:57:53.300Z,100799.77
2019-05-29T15:00:25.502Z,100806.47
2019-05-29T15:02:49.973Z,100801.58
2019-05-29T15:05:17.490Z,100805.95
2019-05-29T15:07:44.457Z,100802.06
2019-05-29T15:10:24.901Z,100817.09
2019-05-29T15:12:41.398Z,100812.98
2019-05-29T15:15:11.035Z,100811.46
2019-05-29T15:17:38.223Z,100815.83
2019-05-29T15:20:09.802Z,100821.41
2019-05-29T15:22:37.010Z,100826.19
2019-05-29T15:25:16.699Z,100833.44
2019-05-29T15:27:35.438Z,100837.68
2019-05-29T15:30:06.150Z,100830.52
2019-05-29T15:32:33.364Z,100837.63
2019-05-29T15:35:00.462Z,100838.45
2019-05-29T15:37:27.099Z,100844.79
2019-05-29T15:39:53.810Z,100841.41
2019-05-29T15:42:20.661Z,100849.38
2019-05-29T15:44:47.365Z,100852.50
2019-05-29T15:47:14.970Z,100856.02
2019-05-29T15:49:41.993Z,100853.27
2019-05-29T15:52:09.190Z,100859.55
2019-05-29T15:54:35.969Z,100860.89
2019-05-29T15:57:03.019Z,100863.05
2019-05-29T15:59:31.078Z,100860.37
2019-05-29T16:01:57.814Z,100862.50
2019-05-29T16:04:24.439Z,100864.19
2019-05-29T16:06:54.894Z,100865.42
2019-05-29T16:09:22.675Z,100870.34
2019-05-29T16:11:49.302Z,100870.28
2019-05-29T16:14:16.778Z,100878.16
2019-05-29T16:16:43.722Z,100879.09
2019-05-29T16:19:10.338Z,100877.59
2019-05-29T16:21:37.062Z,100880.91
2019-05-29T16:24:04.015Z,100879.67
2019-05-29T16:26:31.423Z,100887.37
2019-05-29T16:28:58.101Z,100885.55
2019-05-29T16:31:24.682Z,100890.70
2019-05-29T16:33:51.305Z,100894.59
2019-05-29T16:36:18.703Z,100891.45
2019-05-29T16:38:45.689Z,100900.08
2019-05-29T16:41:13.677Z,100898.36
2019-05-29T16:43:40.596Z,100903.41
2019-05-29T16:46:07.333Z,100905.01
2019-05-29T16:48:34.003Z,100908.25
2019-05-29T16:51:00.634Z,100909.39
2019-05-29T16:53:27.382Z,100909.46
2019-05-29T16:55:54.587Z,100918.48
2019-05-29T16:58:21.697Z,100924.44
2019-05-29T17:00:48.526Z,100920.00
2019-05-29T17:03:15.598Z,100926.30
2019-05-29T17:05:42.760Z,100929.05
2019-05-29T17:08:13.944Z,100931.52
2019-05-29T17:10:41.012Z,100939.16
2019-05-29T17:13:07.784Z,100942.72
2019-05-29T17:15:34.669Z,100940.47
2019-05-29T17:18:02.277Z,100942.51
2019-05-29T17:20:34.786Z,100946.95
2019-05-29T17:23:01.686Z,100960.05
2019-05-29T17:25:28.607Z,100963.83
2019-05-29T17:27:55.407Z,100962.34
2019-05-29T17:30:29.412Z,100963.06
2019-05-29T17:32:56.222Z,100966.53
2019-05-29T17:35:23.155Z,100972.66
2019-05-29T17:37:50.071Z,100975.80
2019-05-29T17:40:17.275Z,100977.25
2019-05-29T17:42:45.308Z,100978.00
2019-05-29T17:45:13.107Z,100975.09
2019-05-29T17:47:41.243Z,100974.52
2019-05-29T17:50:09.882Z,100976.99
2019-05-29T17:52:37.183Z,100977.13
2019-05-29T17:55:05.797Z,100984.01
2019-05-29T17:57:34.400Z,100987.12
2019-05-29T18:00:01.038Z,100982.92
2019-05-29T18:02:28.011Z,100993.49
2019-05-29T18:04:55.254Z,100992.03
2019-05-29T18:07:22.668Z,101001.30
2019-05-29T18:09:51.680Z,101000.23
2019-05-29T18:12:19.219Z,101009.06
2019-05-29T18:14:46.211Z,101014.23
2019-05-29T18:17:13.313Z,101016.26
2019-05-29T18:19:39.992Z,101018.48
2019-05-29T18:22:06.969Z,101018.32
2019-05-29T18:24:33.685Z,101021.42
2019-05-29T18:27:00.500Z,101032.88
2019-05-29T18:29:29.452Z,101032.17
2019-05-29T18:31:55.921Z,101030.54
2019-05-29T18:34:22.877Z,101034.83
2019-05-29T18:36:50.024Z,101047.28
2019-05-29T18:39:17.183Z,101051.83
2019-05-29T18:41:47.917Z,101047.16
2019-05-29T18:44:14.586Z,101059.15
2019-05-29T18:46:41.443Z,101063.51
2019-05-29T18:49:08.294Z,101060.33
2019-05-29T18:51:35.160Z,101074.37
2019-05-29T18:54:04.128Z,101082.97
2019-05-29T18:56:34.107Z,101078.35
2019-05-29T18:59:00.891Z,101089.41
2019-05-29T19:01:27.762Z,101092.59
2019-05-29T19:03:54.754Z,101095.08
2019-05-29T19:06:21.694Z,101100.58
2019-05-29T19:08:50.435Z,101107.29
2019-05-29T19:11:23.686Z,101110.09
2019-05-29T19:13:50.956Z,101111.08
2019-05-29T19:16:21.844Z,101108.58
2019-05-29T19:18:49.231Z,101112.40
2019-05-29T19:21:19.157Z,101117.78
2019-05-29T19:23:46.087Z,101120.17
2019-05-29T19:26:13.346Z,101132.48
2019-05-29T19:28:42.790Z,101131.98
2019-05-29T19:31:09.913Z,101143.81
2019-05-29T19:33:37.063Z,101144.56
2019-05-29T19:36:04.960Z,101139.42
2019-05-29T19:38:34.621Z,101146.44
2019-05-29T19:41:04.756Z,101149.02
2019-05-29T19:43:34.513Z,101148.42
2019-05-29T19:46:03.377Z,101149.45
2019-05-29T19:48:39.118Z,101150.98
2019-05-29T19:51:06.070Z,101150.11
2019-05-29T19:53:33.527Z,101160.22
2019-05-29T19:56:04.121Z,101157.06
2019-05-29T19:58:33.885Z,101157.66
2019-05-29T20:01:00.858Z,101163.21
2019-05-29T20:03:28.323Z,101163.35
2019-05-29T20:05:57.301Z,101171.73
2019-05-29T20:08:24.001Z,101168.89
2019-05-29T20:10:53.905Z,101182.95
2019-05-29T20:14:16.747Z,101185.93
2019-05-29T20:16:43.706Z,101183.00
2019-05-29T20:19:10.774Z,101186.75
2019-05-29T20:21:38.974Z,101188.27
2019-05-29T20:24:06.332Z,101185.56
2019-05-29T20:26:33.289Z,101195.70
2019-05-29T20:29:00.167Z,101195.92
2019-05-29T20:31:27.083Z,101195.77
2019-05-29T20:33:53.790Z,101197.37
2019-05-29T20:36:20.513Z,101201.46
2019-05-29T20:38:47.325Z,101210.28
2019-05-29T20:41:17.699Z,101209.41
2019-05-29T20:43:44.513Z,101221.41
2019-05-29T20:46:11.361Z,101217.39
2019-05-29T20:48:38.735Z,101234.61
2019-05-29T20:51:06.611Z,101234.73
2019-05-29T20:53:33.461Z,101233.47
2019-05-29T20:56:00.363Z,101239.60
2019-05-29T20:58:27.234Z,101243.13
2019-05-29T21:00:53.833Z,101243.66
2019-05-29T21:03:20.638Z,101249.67
2019-05-29T21:05:47.383Z,101250.33
2019-05-29T21:08:14.315Z,101251.47
2019-05-29T21:10:42.035Z,101256.79
2019-05-29T21:13:10.251Z,101256.79
2019-05-29T21:15:39.742Z,101258.47
2019-05-29T21:18:07.587Z,101258.00
2019-05-29T21:20:34.347Z,101267.23
2019-05-29T21:23:01.250Z,101266.65
2019-05-29T21:25:27.958Z,101264.17
2019-05-29T21:27:54.699Z,101268.99
2019-05-29T21:30:25.348Z,101280.36
2019-05-29T21:32:52.590Z,101283.64
2019-05-29T21:35:19.625Z,101286.69
2019-05-29T21:37:46.744Z,101291.14
2019-05-29T21:40:18.279Z,101291.06
2019-05-29T21:42:45.138Z,101296.25
2019-05-29T21:45:14.259Z,101297.30
2019-05-29T21:47:41.074Z,101301.11
2019-05-29T21:50:08.832Z,101304.48
2019-05-29T21:52:35.588Z,101302.00
2019-05-29T21:55:05.049Z,101308.31
2019-05-29T21:57:32.027Z,101305.56
2019-05-29T21:59:58.919Z,101318.52
2019-05-29T22:02:26.029Z,101316.66
2019-05-29T22:04:54.102Z,101319.61
2019-05-29T22:07:20.968Z,101324.22
2019-05-29T22:09:47.927Z,101333.13
2019-05-29T22:12:15.612Z,101339.16
2019-05-29T22:14:42.499Z,101335.48
2019-05-29T22:17:09.249Z,101331.10
2019-05-29T22:19:36.260Z,101332.94
2019-05-29T22:22:03.128Z,101327.97
2019-05-29T22:24:31.189Z,101339.90
2019-05-29T22:26:59.327Z,101337.27
2019-05-29T22:29:26.409Z,101328.61
2019-05-29T22:31:53.485Z,101330.02
2019-05-29T22:34:20.267Z,101321.41
2019-05-29T22:36:46.983Z,101327.01
2019-05-29T22:39:13.965Z,101321.33
2019-05-29T22:41:40.517Z,101338.32
2019-05-29T22:44:07.562Z,101334.84
2019-05-29T22:46:34.356Z,101337.39
2019-05-29T22:49:02.038Z,101334.17
2019-05-29T22:51:28.898Z,101341.13
2019-05-29T22:53:57.819Z,101340.84
2019-05-29T22:56:25.113Z,101338.21
2019-05-29T22:58:52.064Z,101334.66
2019-05-29T23:01:20.184Z,101333.34
2019-05-29T23:03:47.199Z,101338.94
2019-05-29T23:06:13.855Z,101341.95
2019-05-29T23:08:40.813Z,101344.41
2019-05-29T23:11:07.499Z,101344.41
2019-05-29T23:13:34.254Z,101340.00
2019-05-29T23:16:01.008Z,101346.31
2019-05-29T23:18:27.723Z,101351.11
2019-05-29T23:20:54.429Z,101350.22
2019-05-29T23:23:21.217Z,101353.15
2019-05-29T23:25:48.033Z,101351.23
2019-05-29T23:28:14.751Z,101352.55
2019-05-29T23:30:41.600Z,101355.84
2019-05-29T23:33:08.399Z,101352.14
2019-05-29T23:35:35.009Z,101359.27
2019-05-29T23:38:01.703Z,101363.39
2019-05-29T23:40:28.454Z,101358.64
2019-05-29T23:42:55.403Z,101365.83
2019-05-29T23:45:22.577Z,101374.17
2019-05-29T23:47:49.389Z,101369.18
2019-05-29T23:50:16.737Z,101368.33
2019-05-29T23:52:43.377Z,101380.55
2019-05-29T23:55:48.164Z,101380.97
2019-05-29T23:58:14.833Z,101383.24
